createdAt,value
2023-01-23T00:02:38.298Z,12.44
2023-01-23T00:05:27.271Z,12.45
2023-01-23T00:08:09.432Z,12.43
2023-01-23T00:10:58.183Z,12.38
2023-01-23T00:13:47.167Z,12.40
2023-01-23T00:16:38.242Z,12.45
2023-01-23T00:19:27.524Z,12.36
2023-01-23T00:22:10.599Z,12.35
2023-01-23T00:24:59.526Z,12.31
2023-01-23T00:27:41.273Z,12.33
2023-01-23T00:30:30.519Z,12.25
2023-01-23T00:33:12.158Z,12.23
2023-01-23T00:36:03.139Z,12.17
2023-01-23T00:38:53.112Z,12.16
2023-01-23T00:41:42.529Z,12.14
2023-01-23T00:44:25.216Z,12.14
2023-01-23T00:47:07.878Z,12.06
2023-01-23T00:49:57.106Z,12.16
2023-01-23T00:52:46.269Z,12.02
2023-01-23T00:55:28.501Z,12.02
2023-01-23T00:58:17.058Z,12.04
2023-01-23T01:01:02.541Z,12.04
2023-01-23T01:03:53.214Z,12.05
2023-01-23T01:06:35.575Z,11.99
2023-01-23T01:09:24.113Z,12.06
2023-01-23T01:12:06.606Z,12.04
2023-01-23T01:14:55.163Z,12.20
2023-01-23T01:17:37.577Z,12.16
2023-01-23T01:20:26.227Z,12.08
2023-01-23T01:23:08.550Z,12.05
2023-01-23T01:25:57.227Z,11.93
2023-01-23T01:28:40.548Z,11.78
2023-01-23T01:31:29.277Z,11.61
2023-01-23T01:34:18.233Z,11.86
2023-01-23T01:37:07.492Z,11.90
2023-01-23T01:39:49.225Z,11.78
2023-01-23T01:42:39.159Z,11.95
2023-01-23T01:46:05.236Z,11.85
2023-01-23T01:49:06.222Z,11.85
2023-01-23T01:52:26.265Z,11.78
2023-01-23T01:55:23.121Z,11.64
2023-01-23T01:58:12.197Z,11.92
2023-01-23T02:01:03.285Z,11.83
2023-01-23T02:03:47.242Z,11.76
2023-01-23T02:06:36.140Z,11.71
2023-01-23T02:09:32.192Z,11.63
2023-01-23T02:12:15.445Z,11.68
2023-01-23T02:15:04.524Z,11.93
2023-01-23T02:17:46.476Z,11.94
2023-01-23T02:20:36.200Z,11.85
2023-01-23T02:24:02.764Z,11.83
2023-01-23T02:26:53.218Z,11.86
2023-01-23T02:29:49.398Z,11.84
2023-01-23T02:32:40.223Z,11.86
2023-01-23T02:35:37.187Z,11.97
2023-01-23T02:38:31.090Z,11.90
2023-01-23T02:41:24.154Z,11.97
2023-01-23T02:44:36.147Z,11.99
2023-01-23T02:47:28.158Z,11.95
2023-01-23T02:50:17.661Z,11.98
2023-01-23T02:53:02.205Z,11.99
2023-01-23T02:56:08.004Z,12.04
2023-01-23T02:59:16.273Z,12.13
2023-01-23T03:01:58.769Z,12.27
2023-01-23T03:04:47.086Z,12.29
2023-01-23T03:07:29.447Z,12.44
2023-01-23T03:10:21.426Z,12.49
2023-01-23T03:13:12.259Z,12.50
2023-01-23T03:16:01.112Z,12.61
2023-01-23T03:18:54.028Z,12.71
2023-01-23T03:21:45.245Z,12.59
2023-01-23T03:24:29.190Z,12.73
2023-01-23T03:27:18.112Z,12.73
2023-01-23T03:30:29.205Z,12.85
2023-01-23T03:33:11.366Z,12.99
2023-01-23T03:36:00.218Z,13.03
2023-01-23T03:39:12.159Z,13.06
2023-01-23T03:42:01.252Z,13.10
2023-01-23T03:44:44.189Z,12.99
2023-01-23T03:47:34.187Z,13.07
2023-01-23T03:50:23.118Z,13.19
2023-01-23T03:53:13.188Z,13.08
2023-01-23T03:56:10.194Z,13.22
2023-01-23T03:58:52.454Z,13.29
2023-01-23T04:01:41.094Z,13.32
2023-01-23T04:04:30.163Z,13.30
2023-01-23T04:07:15.474Z,13.37
2023-01-23T04:10:05.151Z,13.48
2023-01-23T04:12:52.610Z,13.58
2023-01-23T04:15:42.237Z,13.59
2023-01-23T04:18:24.517Z,13.69
2023-01-23T04:21:14.107Z,13.68
2023-01-23T04:23:56.446Z,13.72
2023-01-23T04:26:46.107Z,13.69
2023-01-23T04:29:29.607Z,13.64
2023-01-23T04:32:18.101Z,13.66
2023-01-23T04:35:00.477Z,13.83
2023-01-23T04:37:52.235Z,13.89
2023-01-23T04:40:41.094Z,13.96
2023-01-23T04:43:31.149Z,13.93
2023-01-23T04:46:24.296Z,13.88
2023-01-23T04:49:15.375Z,14.27
2023-01-23T04:52:05.235Z,14.42
2023-01-23T04:55:05.134Z,14.76
2023-01-23T04:57:54.904Z,15.03
2023-01-23T05:00:38.535Z,15.04
2023-01-23T05:03:28.279Z,15.16
2023-01-23T05:06:10.523Z,15.68
2023-01-23T05:08:59.142Z,15.84
2023-01-23T05:11:52.518Z,16.27
2023-01-23T05:14:46.161Z,16.15
2023-01-23T05:17:35.131Z,16.48
2023-01-23T05:20:18.975Z,16.37
2023-01-23T05:23:05.265Z,16.67
2023-01-23T05:25:56.499Z,16.37
2023-01-23T05:28:46.259Z,16.42
2023-01-23T05:31:36.273Z,16.47
2023-01-23T05:34:48.177Z,16.83
2023-01-23T05:37:34.479Z,17.30
2023-01-23T05:40:23.144Z,17.35
2023-01-23T05:43:31.475Z,17.47
2023-01-23T05:46:38.147Z,17.76
2023-01-23T05:49:28.168Z,17.96
2023-01-23T05:52:17.033Z,18.16
2023-01-23T05:55:06.182Z,18.31
2023-01-23T05:57:55.491Z,18.41
2023-01-23T06:00:54.140Z,18.48
2023-01-23T06:03:59.418Z,18.75
2023-01-23T06:07:00.143Z,19.10
2023-01-23T06:09:49.213Z,19.03
2023-01-23T06:12:31.477Z,19.10
2023-01-23T06:15:20.061Z,18.80
2023-01-23T06:18:04.487Z,18.69
2023-01-23T06:20:47.095Z,18.88
2023-01-23T06:23:36.181Z,19.18
2023-01-23T06:26:18.655Z,19.34
2023-01-23T06:29:08.257Z,19.21
2023-01-23T06:31:50.725Z,19.20
2023-01-23T06:34:39.326Z,19.19
2023-01-23T06:37:21.419Z,18.92
2023-01-23T06:40:10.140Z,18.92
2023-01-23T06:43:05.571Z,19.02
2023-01-23T06:45:55.196Z,18.73
2023-01-23T06:48:38.543Z,18.84
2023-01-23T06:51:29.343Z,19.27
2023-01-23T06:54:14.447Z,18.99
2023-01-23T06:57:10.166Z,19.03
2023-01-23T07:00:02.528Z,19.14
2023-01-23T07:02:47.084Z,19.24
2023-01-23T07:05:40.074Z,19.47
2023-01-23T07:08:29.221Z,19.47
2023-01-23T07:11:12.807Z,19.57
2023-01-23T07:14:01.227Z,19.66
2023-01-23T07:16:45.377Z,19.68
2023-01-23T07:19:34.226Z,19.36
2023-01-23T07:22:22.057Z,19.43
2023-01-23T07:25:11.160Z,19.53
2023-01-23T07:27:53.372Z,19.56
2023-01-23T07:30:42.189Z,19.68
2023-01-23T07:33:31.126Z,19.63
2023-01-23T07:36:24.125Z,19.80
2023-01-23T07:39:13.121Z,19.71
2023-01-23T07:41:55.396Z,19.54
2023-01-23T07:44:44.102Z,19.55
2023-01-23T07:47:33.117Z,19.34
2023-01-23T07:50:23.501Z,19.71
2023-01-23T07:53:05.177Z,19.69
2023-01-23T07:56:00.017Z,19.49
2023-01-23T07:58:49.257Z,19.73
2023-01-23T08:01:31.473Z,19.94
2023-01-23T08:04:20.179Z,19.96
2023-01-23T08:07:09.168Z,19.59
2023-01-23T08:09:58.636Z,19.69
2023-01-23T08:12:41.080Z,19.72
2023-01-23T08:15:30.121Z,19.50
2023-01-23T08:18:19.119Z,19.62
2023-01-23T08:21:11.298Z,19.56
2023-01-23T08:23:53.381Z,19.62
2023-01-23T08:26:42.226Z,19.57
2023-01-23T08:29:24.593Z,19.55
2023-01-23T08:32:13.232Z,19.53
2023-01-23T08:34:56.416Z,19.44
2023-01-23T08:37:45.137Z,19.53
2023-01-23T08:40:34.083Z,19.37
2023-01-23T08:43:25.526Z,19.29
2023-01-23T08:46:08.193Z,19.42
2023-01-23T08:48:57.452Z,19.33
2023-01-23T08:51:40.208Z,19.18
2023-01-23T08:54:28.482Z,19.30
2023-01-23T08:57:17.074Z,19.29
2023-01-23T08:59:59.436Z,19.32
2023-01-23T09:02:48.232Z,19.36
2023-01-23T09:05:30.555Z,19.29
2023-01-23T09:08:19.137Z,19.18
2023-01-23T09:11:01.515Z,19.11
2023-01-23T09:13:51.738Z,19.33
2023-01-23T09:16:35.551Z,19.26
2023-01-23T09:19:24.252Z,19.03
2023-01-23T09:22:06.588Z,19.02
2023-01-23T09:24:55.204Z,19.03
2023-01-23T09:27:37.500Z,19.02
2023-01-23T09:30:26.328Z,18.96
2023-01-23T09:33:08.435Z,18.97
2023-01-23T09:36:00.217Z,18.92
2023-01-23T09:38:42.485Z,18.82
2023-01-23T09:41:36.237Z,18.75
2023-01-23T09:44:29.472Z,18.72
2023-01-23T09:47:27.188Z,18.65
2023-01-23T09:50:15.509Z,18.58
2023-01-23T09:53:22.035Z,18.75
2023-01-23T09:56:18.199Z,18.73
2023-01-23T09:59:18.480Z,18.57
2023-01-23T10:02:01.233Z,18.61
2023-01-23T10:04:49.416Z,18.53
2023-01-23T10:07:52.152Z,18.47
2023-01-23T10:10:58.457Z,18.53
2023-01-23T10:13:53.199Z,18.47
2023-01-23T10:16:52.622Z,18.44
2023-01-23T10:19:43.109Z,18.44
2023-01-23T10:22:44.419Z,18.30
2023-01-23T10:25:43.125Z,18.26
2023-01-23T10:28:43.213Z,18.22
2023-01-23T10:31:41.585Z,18.15
2023-01-23T10:34:45.106Z,18.10
2023-01-23T10:37:33.451Z,18.07
2023-01-23T10:40:25.184Z,18.00
2023-01-23T10:43:11.413Z,18.00
2023-01-23T10:46:00.050Z,18.00
2023-01-23T10:48:57.123Z,17.92
2023-01-23T10:51:46.042Z,17.87
2023-01-23T10:54:34.172Z,17.72
2023-01-23T10:57:29.135Z,17.76
2023-01-23T11:00:47.111Z,17.72
2023-01-23T11:03:29.373Z,17.68
2023-01-23T11:06:25.167Z,17.41
2023-01-23T11:09:08.380Z,17.30
2023-01-23T11:12:14.221Z,17.26
2023-01-23T11:14:56.449Z,17.15
2023-01-23T11:17:46.092Z,17.20
2023-01-23T11:20:35.424Z,17.01
2023-01-23T11:23:27.157Z,16.88
2023-01-23T11:26:16.099Z,16.71
2023-01-23T11:29:05.503Z,16.61
2023-01-23T11:31:50.276Z,16.55
2023-01-23T11:34:41.936Z,16.61
2023-01-23T11:37:53.208Z,16.63
2023-01-23T11:40:41.511Z,16.45
2023-01-23T11:43:25.092Z,16.38
2023-01-23T11:46:20.268Z,16.25
2023-01-23T11:49:14.354Z,16.35
2023-01-23T11:52:27.165Z,16.20
2023-01-23T11:55:34.692Z,16.02
2023-01-23T11:58:49.117Z,16.09
2023-01-23T12:02:03.506Z,15.99
2023-01-23T12:05:23.485Z,15.95
2023-01-23T12:08:44.142Z,15.84
2023-01-23T12:11:34.852Z,15.66
2023-01-23T12:14:27.110Z,15.56
2023-01-23T12:17:53.202Z,15.41
2023-01-23T12:20:54.126Z,15.32
2023-01-23T12:24:01.455Z,15.32
2023-01-23T12:27:08.078Z,15.23
2023-01-23T12:30:24.092Z,15.26
2023-01-23T12:33:30.977Z,15.22
2023-01-23T12:37:06.195Z,15.13
2023-01-23T12:40:00.542Z,15.07
2023-01-23T12:43:13.047Z,15.19
2023-01-23T12:46:06.867Z,15.06
2023-01-23T12:49:25.164Z,15.02
2023-01-23T12:52:30.229Z,14.98
2023-01-23T12:55:34.068Z,14.96
2023-01-23T12:58:25.863Z,14.93
2023-01-23T13:01:17.066Z,14.90
2023-01-23T13:04:28.170Z,14.86
2023-01-23T13:07:16.565Z,14.85
2023-01-23T13:10:55.116Z,14.80
2023-01-23T13:13:38.465Z,14.83
2023-01-23T13:16:29.117Z,14.85
2023-01-23T14:22:43.575Z,14.92
2023-01-23T14:25:26.901Z,14.94
2023-01-23T14:28:15.418Z,14.88
2023-01-23T14:31:01.930Z,14.90
2023-01-23T14:33:52.558Z,14.91
2023-01-23T14:36:44.540Z,14.93
2023-01-23T14:39:38.141Z,14.89
2023-01-23T14:42:41.409Z,14.95
2023-01-23T14:45:32.216Z,14.96
2023-01-23T14:48:23.070Z,15.02
2023-01-23T14:51:14.628Z,14.88
2023-01-23T14:54:02.997Z,14.88
2023-01-23T14:56:53.415Z,14.95
2023-01-23T14:59:46.814Z,15.00
2023-01-23T15:02:42.534Z,14.88
2023-01-23T15:05:27.729Z,14.70
2023-01-23T15:08:34.445Z,14.78
2023-01-23T15:11:24.459Z,14.83
2023-01-23T15:14:08.875Z,14.75
2023-01-23T15:16:59.472Z,14.68
2023-01-23T15:19:42.808Z,14.76
2023-01-23T15:22:34.503Z,14.79
2023-01-23T15:25:34.889Z,14.66
2023-01-23T15:28:52.448Z,14.61
2023-01-23T15:31:42.949Z,14.58
2023-01-23T15:34:24.496Z,14.47
2023-01-23T15:37:14.597Z,14.48
2023-01-23T15:40:08.939Z,14.52
2023-01-23T15:43:20.582Z,14.41
2023-01-23T15:46:02.896Z,14.27
2023-01-23T15:48:52.404Z,14.37
2023-01-23T15:51:34.934Z,14.29
2023-01-23T15:54:31.595Z,14.15
2023-01-23T15:57:14.982Z,14.22
2023-01-23T16:00:03.621Z,14.17
2023-01-23T16:02:55.636Z,14.15
2023-01-23T16:05:45.499Z,14.10
2023-01-23T16:08:36.503Z,14.11
2023-01-23T16:11:26.583Z,14.16
2023-01-23T16:14:09.941Z,14.22
2023-01-23T16:17:11.392Z,14.21
2023-01-23T16:20:11.607Z,14.18
2023-01-23T16:23:14.166Z,14.08
2023-01-23T16:25:57.646Z,14.22
2023-01-23T16:28:45.889Z,14.12
2023-01-23T16:31:28.671Z,14.09
2023-01-23T16:34:16.847Z,14.07
2023-01-23T16:37:01.550Z,14.05
2023-01-23T16:39:51.887Z,13.88
2023-01-23T16:42:36.561Z,13.81
2023-01-23T16:45:29.059Z,13.81
2023-01-23T16:48:21.676Z,13.62
2023-01-23T16:51:20.972Z,13.53
2023-01-23T16:54:18.757Z,13.50
2023-01-23T16:57:10.278Z,13.40
2023-01-23T16:59:53.591Z,13.39
2023-01-23T17:02:36.070Z,13.36
2023-01-23T17:05:24.678Z,13.43
2023-01-23T17:08:31.052Z,13.34
2023-01-23T17:11:13.558Z,13.30
2023-01-23T17:14:33.984Z,13.26
2023-01-23T17:17:33.562Z,13.33
2023-01-23T17:20:22.524Z,13.22
2023-01-23T17:23:04.966Z,13.07
2023-01-23T17:26:00.699Z,13.11
2023-01-23T17:28:43.942Z,13.10
2023-01-23T17:31:36.664Z,13.07
2023-01-23T17:34:30.007Z,13.20
2023-01-23T17:37:28.498Z,13.04
2023-01-23T17:40:18.475Z,13.00
2023-01-23T17:43:07.535Z,12.92
2023-01-23T17:45:53.011Z,12.92
2023-01-23T17:48:48.505Z,12.93
2023-01-23T17:51:32.971Z,12.77
2023-01-23T17:54:28.595Z,12.83
2023-01-23T17:57:18.581Z,12.85
2023-01-23T18:00:07.933Z,12.87
2023-01-23T18:02:51.518Z,12.88
2023-01-23T18:05:40.609Z,13.31
2023-01-23T18:08:25.074Z,13.54
2023-01-23T18:11:15.937Z,13.22
2023-01-23T18:14:31.566Z,12.92
2023-01-23T18:17:53.357Z,12.81
2023-01-23T18:20:43.464Z,12.58
2023-01-23T18:23:32.465Z,12.60
2023-01-23T18:26:17.594Z,12.58
2023-01-23T18:29:30.812Z,12.42
2023-01-23T18:32:34.535Z,12.36
2023-01-23T18:35:20.167Z,12.52
2023-01-23T18:38:31.765Z,12.58
2023-01-23T18:41:26.012Z,12.38
2023-01-23T18:44:34.577Z,12.26
2023-01-23T18:47:33.577Z,12.17
2023-01-23T18:50:23.694Z,12.21
2023-01-23T18:53:40.572Z,12.16
2023-01-23T18:56:35.206Z,12.06
2023-01-23T18:59:42.511Z,12.07
2023-01-23T19:02:57.988Z,12.10
2023-01-23T19:05:41.477Z,12.18
2023-01-23T19:08:37.932Z,12.01
2023-01-23T19:11:48.419Z,11.95
2023-01-23T19:14:50.981Z,11.94
2023-01-23T19:18:05.557Z,11.90
2023-01-23T19:21:00.907Z,11.86
2023-01-23T19:23:47.521Z,11.85
2023-01-23T19:26:43.049Z,11.82
2023-01-23T19:29:25.564Z,11.97
2023-01-23T19:32:15.918Z,11.99
2023-01-23T19:35:12.491Z,11.78
2023-01-23T19:38:02.972Z,11.85
2023-01-23T19:40:45.498Z,11.88
2023-01-23T19:43:34.932Z,11.78
2023-01-23T19:46:17.524Z,11.71
2023-01-23T19:49:02.847Z,11.60
2023-01-23T19:51:52.539Z,11.51
2023-01-23T19:54:40.814Z,11.39
2023-01-23T19:57:22.562Z,11.38
2023-01-23T20:00:05.175Z,11.34
2023-01-23T20:02:54.503Z,11.31
2023-01-23T20:05:36.785Z,11.35
2023-01-23T20:08:25.536Z,11.43
2023-01-23T20:11:07.757Z,11.41
2023-01-23T20:13:56.577Z,11.40
2023-01-23T20:16:44.861Z,11.42
2023-01-23T20:19:33.499Z,11.42
2023-01-23T20:22:16.069Z,11.43
2023-01-23T20:25:04.506Z,11.42
2023-01-23T20:27:47.740Z,11.43
2023-01-23T20:30:36.618Z,11.45
2023-01-23T20:33:25.543Z,11.65
2023-01-23T20:36:15.464Z,11.49
2023-01-23T20:38:57.947Z,11.42
2023-01-23T20:41:46.555Z,11.44
2023-01-23T20:44:28.786Z,11.41
2023-01-23T20:47:17.491Z,11.48
2023-01-23T20:49:59.940Z,11.46
2023-01-23T20:53:06.528Z,11.46
2023-01-23T20:55:55.488Z,11.45
2023-01-23T20:59:07.332Z,11.44
2023-01-23T21:02:09.536Z,11.46
2023-01-23T21:05:00.487Z,11.45
2023-01-23T21:07:49.494Z,11.48
2023-01-23T21:10:31.676Z,11.52
2023-01-23T21:13:23.469Z,11.52
2023-01-23T21:16:19.617Z,11.47
2023-01-23T21:19:08.753Z,11.44
2023-01-23T21:21:51.399Z,11.63
2023-01-23T21:24:41.746Z,11.49
2023-01-23T21:27:26.555Z,11.45
2023-01-23T21:30:15.808Z,11.45
2023-01-23T21:32:57.523Z,11.45
2023-01-23T21:35:39.948Z,11.47
2023-01-23T21:38:28.467Z,11.40
2023-01-23T21:41:10.895Z,11.55
2023-01-23T21:43:59.471Z,11.55
2023-01-23T21:46:48.442Z,11.54
2023-01-23T21:49:32.356Z,11.55
2023-01-23T21:52:21.473Z,11.52
2023-01-23T21:55:03.771Z,11.51
2023-01-23T21:57:52.580Z,11.43
2023-01-23T22:01:06.933Z,11.36
2023-01-23T22:03:55.486Z,11.32
2023-01-23T22:06:45.513Z,11.42
2023-01-23T22:09:27.944Z,11.34
2023-01-23T22:12:16.473Z,11.33
2023-01-23T22:14:58.627Z,11.31
2023-01-23T22:17:47.513Z,11.30
2023-01-23T22:20:35.820Z,11.26
2023-01-23T22:23:18.490Z,11.23
2023-01-23T22:26:04.291Z,11.24
2023-01-23T22:28:53.433Z,11.27
2023-01-23T22:31:49.573Z,11.23
2023-01-23T22:34:31.650Z,11.28
2023-01-23T22:37:22.127Z,11.39
2023-01-23T22:40:11.486Z,11.25
2023-01-23T22:42:53.763Z,11.24
2023-01-23T22:45:42.540Z,11.22
2023-01-23T22:48:24.862Z,11.20
2023-01-23T22:51:17.455Z,11.22
2023-01-23T22:54:07.432Z,11.14
2023-01-23T22:56:55.772Z,11.01
2023-01-23T22:59:37.522Z,11.36
2023-01-23T23:02:26.444Z,11.13
2023-01-23T23:05:08.794Z,11.07
2023-01-23T23:07:57.527Z,10.95
2023-01-23T23:10:39.764Z,10.89
2023-01-23T23:13:28.468Z,10.89
2023-01-23T23:16:23.444Z,10.98
2023-01-23T23:19:19.513Z,11.04
2023-01-23T23:22:08.521Z,11.01
2023-01-23T23:24:50.783Z,10.98
2023-01-23T23:27:39.463Z,10.93
2023-01-23T23:30:21.764Z,10.88
2023-01-23T23:33:10.423Z,10.90
2023-01-23T23:35:53.727Z,10.93
2023-01-23T23:38:42.483Z,10.92
2023-01-23T23:41:31.412Z,10.95
2023-01-23T23:44:20.495Z,10.92
2023-01-23T23:47:02.727Z,10.94
2023-01-23T23:49:51.438Z,10.99
2023-01-23T23:52:36.004Z,11.15
2023-01-23T23:55:25.388Z,11.00
2023-01-23T23:58:14.485Z,11.04
